Time;durP1;ratioP1;P1;durP2;ratioP2;P2;SDS_P1;SDS_P2;PMS_P1;PMS_P2;Temp;Humidity;BMP_temperature;BMP_pressure;BME280_temperature;BME280_humidity;BME280_pressure;Samples;Min_cycle;Max_cycle;Signal;HPM_P1;HPM_P2
2023/12/27 00:01:05;;;;;;;;;3.75;3.75;;;;;7.57;98.28;99873.72;6325776;20;1820194;-43
2023/12/27 00:03:33;;;;;;;;;6.67;3.67;;;;;7.45;99.66;99875.13;6312434;20;3472146;-45
2023/12/27 00:06:01;;;;;;;;;3.00;3.00;;;;;7.30;100.00;99868.69;6282121;20;2743064;-43
2023/12/27 00:08:30;;;;;;;;;5.00;3.75;;;;;7.48;99.96;99869.69;6327784;20;1811841;-45
2023/12/27 00:10:58;;;;;;;;;5.00;4.00;;;;;7.36;100.00;99864.88;6312349;20;2733609;-42
2023/12/27 00:13:26;;;;;;;;;4.00;3.00;;;;;7.29;100.00;99868.75;6329614;20;1811684;-43
2023/12/27 00:15:55;;;;;;;;;3.25;3.25;;;;;7.44;100.00;99873.41;6328122;20;1818095;-42
2023/12/27 00:18:22;;;;;;;;;10.00;5.00;;;;;7.30;100.00;99871.38;6309993;20;2762855;-45
2023/12/27 00:20:50;;;;;;;;;5.00;5.00;;;;;7.19;100.00;99887.88;6282204;20;2745111;-42
2023/12/27 00:23:18;;;;;;;;;6.50;6.50;;;;;7.10;100.00;99880.25;6314256;20;2748244;-42
2023/12/27 00:25:46;;;;;;;;;3.00;3.00;;;;;6.98;100.00;99887.03;6280007;20;2739893;-42
2023/12/27 00:28:13;;;;;;;;;7.00;4.00;;;;;7.04;100.00;99885.88;6311005;20;2754488;-41
2023/12/27 00:30:42;;;;;;;;;3.00;3.00;;;;;7.35;100.00;99884.53;6299225;20;1813951;-42
2023/12/27 00:33:10;;;;;;;;;9.50;4.50;;;;;7.26;100.00;99886.66;6308120;20;2759742;-42
2023/12/27 00:35:39;;;;;;;;;18.33;16.00;;;;;7.41;100.00;99895.78;6277402;20;3545143;-42
2023/12/27 00:38:08;;;;;;;;;42.00;30.00;;;;;7.47;100.00;99899.97;6276750;20;2870086;-42
2023/12/27 00:40:37;;;;;;;;;54.33;40.67;;;;;7.32;100.00;99903.34;6278753;20;2865075;-42
2023/12/27 00:43:06;;;;;;;;;22.67;13.00;;;;;7.44;100.00;99905.47;6305901;20;3552333;-42
2023/12/27 00:45:35;;;;;;;;;35.00;27.00;;;;;7.35;100.00;99916.59;6308143;20;3596096;-42
2023/12/27 00:48:05;;;;;;;;;21.33;16.00;;;;;7.22;100.00;99927.78;6307862;20;3544128;-43
2023/12/27 00:50:33;;;;;;;;;14.00;11.00;;;;;7.21;100.00;99930.53;6315865;20;2789913;-46
2023/12/27 00:53:00;;;;;;;;;5.50;5.50;;;;;6.73;100.00;99929.88;6278611;20;2748204;-44
2023/12/27 00:55:29;;;;;;;;;6.50;5.00;;;;;6.74;100.00;99936.97;6297447;20;1814886;-44
2023/12/27 00:57:57;;;;;;;;;4.00;4.00;;;;;6.47;100.00;99938.09;6309656;20;2756647;-44
2023/12/27 01:00:29;;;;;;;;;5.00;4.50;;;;;6.53;100.00;99932.50;6324021;20;2752387;-44
2023/12/27 01:02:57;;;;;;;;;9.00;7.00;;;;;6.79;100.00;99934.09;6315857;20;2733695;-42
2023/12/27 01:05:25;;;;;;;;;8.00;8.00;;;;;6.73;100.00;99945.91;6312060;20;2745108;-44
2023/12/27 01:07:52;;;;;;;;;10.50;5.00;;;;;6.92;100.00;99939.78;6284485;20;2769060;-42
2023/12/27 01:10:21;;;;;;;;;6.00;4.00;;;;;6.74;100.00;99949.44;6285787;20;2752376;-42
2023/12/27 01:12:49;;;;;;;;;3.25;3.25;;;;;6.74;100.00;99950.31;6300810;20;1811265;-42
2023/12/27 01:15:18;;;;;;;;;3.00;3.00;;;;;6.34;100.00;99951.91;6329359;20;1816024;-43
2023/12/27 01:17:46;;;;;;;;;4.75;4.00;;;;;6.59;100.00;99950.94;6333613;20;1812860;-44
2023/12/27 01:20:15;;;;;;;;;7.00;5.00;;;;;6.65;100.00;99948.03;6314086;20;2747203;-46
2023/12/27 01:22:46;;;;;;;;;5.75;3.25;;;;;6.57;100.00;99956.34;6298752;20;1811765;-44
2023/12/27 01:25:14;;;;;;;;;4.00;4.00;;;;;6.57;100.00;99955.47;6314716;20;2756603;-46
2023/12/27 01:27:41;;;;;;;;;4.00;3.00;;;;;6.91;100.00;99959.41;6303405;20;1817610;-44
2023/12/27 01:30:10;;;;;;;;;5.75;3.25;;;;;6.54;100.00;99969.81;6299944;20;1813928;-42
2023/12/27 01:32:38;;;;;;;;;6.00;4.00;;;;;6.66;100.00;99970.22;6319260;20;2739931;-43
2023/12/27 01:35:08;;;;;;;;;4.75;3.75;;;;;6.34;100.00;99969.72;6332194;20;1816042;-43
2023/12/27 01:37:36;;;;;;;;;4.00;3.00;;;;;6.64;100.00;99967.63;6329209;20;1807609;-44
2023/12/27 01:40:06;;;;;;;;;3.00;3.00;;;;;6.85;100.00;99971.22;6313101;20;3457712;-43
2023/12/27 01:42:35;;;;;;;;;3.00;3.00;;;;;7.02;100.00;99979.38;6298156;20;1815977;-44
2023/12/27 01:45:05;;;;;;;;;2.75;2.75;;;;;6.92;100.00;99990.50;6326838;20;1812833;-43
2023/12/27 01:47:37;;;;;;;;;4.00;3.75;;;;;6.88;100.00;99980.91;6330992;20;1818075;-42
2023/12/27 01:50:09;;;;;;;;;4.00;4.00;;;;;6.81;100.00;99985.63;6313196;20;2754612;-42
2023/12/27 01:52:40;;;;;;;;;3.50;3.25;;;;;6.81;100.00;99986.47;6298290;20;1809788;-42
2023/12/27 01:55:10;;;;;;;;;8.00;3.00;;;;;6.85;100.00;99991.72;6311753;20;2745076;-42
2023/12/27 01:57:40;;;;;;;;;3.00;3.00;;;;;6.85;100.00;99989.03;6332752;20;1813100;-42
2023/12/27 02:00:10;;;;;;;;;4.00;4.00;;;;;6.79;100.00;99984.81;6329788;20;1806587;-42
2023/12/27 02:02:39;;;;;;;;;5.50;3.00;;;;;6.63;100.00;99976.56;6333468;20;1814007;-41
2023/12/27 02:05:09;;;;;;;;;4.50;4.50;;;;;6.62;100.00;99980.16;6331043;20;1812897;-42
2023/12/27 02:07:38;;;;;;;;;4.00;4.00;;;;;6.66;100.00;99984.47;6328840;20;1819189;-42
2023/12/27 02:10:07;;;;;;;;;5.00;4.00;;;;;6.57;100.00;99991.00;6329457;20;1821336;-43
2023/12/27 02:12:36;;;;;;;;;3.50;3.00;;;;;6.58;100.00;99992.78;6332718;20;1807609;-42
2023/12/27 02:15:04;;;;;;;;;8.00;5.00;;;;;6.17;100.00;100005.06;6312587;20;2750343;-43
2023/12/27 02:17:33;;;;;;;;;2.75;2.75;;;;;6.36;100.00;99998.06;6300359;20;1807630;-43
2023/12/27 02:20:02;;;;;;;;;3.00;3.00;;;;;6.50;100.00;100004.66;6313485;20;2743117;-43
2023/12/27 02:22:33;;;;;;;;;8.50;4.00;;;;;6.61;100.00;100005.13;6314451;20;2754416;-41
2023/12/27 02:25:02;;;;;;;;;4.50;4.00;;;;;6.64;100.00;100005.00;6298632;20;1819141;-42
2023/12/27 02:27:30;;;;;;;;;7.00;7.00;;;;;6.53;100.00;100013.44;6329026;20;1808715;-44
2023/12/27 02:29:59;;;;;;;;;7.00;5.00;;;;;6.61;100.00;100010.47;6328814;20;1817242;-43
2023/12/27 02:32:27;;;;;;;;;4.50;4.50;;;;;6.58;100.00;100011.44;6316273;20;2750290;-43
2023/12/27 02:34:55;;;;;;;;;5.00;5.00;;;;;6.79;100.00;100011.47;6281823;20;2747267;-44
2023/12/27 02:37:23;;;;;;;;;4.00;4.00;;;;;6.78;100.00;100005.28;6286641;20;2639857;-45
2023/12/27 02:39:51;;;;;;;;;4.00;4.00;;;;;6.77;100.00;100000.03;6330437;20;1823778;-45
2023/12/27 02:42:19;;;;;;;;;4.00;4.00;;;;;6.75;100.00;100002.75;6310570;20;2754422;-43
2023/12/27 02:44:47;;;;;;;;;5.00;5.00;;;;;6.87;100.00;100000.50;6282063;20;2744052;-43
2023/12/27 02:47:14;;;;;;;;;7.50;7.50;;;;;6.66;100.00;100003.13;6295859;20;2739900;-44
2023/12/27 02:49:43;;;;;;;;;7.00;3.00;;;;;6.55;100.00;99997.34;6300877;20;1812874;-43
2023/12/27 02:52:12;;;;;;;;;4.00;4.00;;;;;6.73;100.00;100009.94;6329003;20;1819142;-42
2023/12/27 02:54:40;;;;;;;;;6.50;3.50;;;;;6.49;100.00;100011.78;6328370;20;1819755;-42
2023/12/27 02:57:09;;;;;;;;;5.50;5.50;;;;;6.48;100.00;100009.22;6330471;20;1816043;-43
2023/12/27 02:59:37;;;;;;;;;4.00;3.00;;;;;6.50;100.00;100004.66;6327107;20;1819241;-45
2023/12/27 03:02:06;;;;;;;;;5.75;5.75;;;;;6.38;100.00;100009.56;6329923;20;1816092;-43
2023/12/27 03:04:34;;;;;;;;;4.00;2.50;;;;;6.28;100.00;100012.63;6312670;20;2742014;-44
2023/12/27 03:07:03;;;;;;;;;6.25;3.00;;;;;6.45;100.00;100014.63;6330829;20;1817058;-43
2023/12/27 03:09:32;;;;;;;;;6.00;6.00;;;;;6.41;100.00;100023.72;6314557;20;2745167;-43
2023/12/27 03:12:00;;;;;;;;;7.50;4.00;;;;;6.42;100.00;100020.09;6329796;20;1821270;-44
2023/12/27 03:14:28;;;;;;;;;6.00;6.00;;;;;6.54;100.00;100019.63;6311632;20;2745204;-42
2023/12/27 03:16:56;;;;;;;;;8.00;4.00;;;;;6.35;100.00;100020.34;6314085;20;2749306;-43
2023/12/27 03:19:25;;;;;;;;;3.00;3.00;;;;;6.59;100.00;100020.31;6314887;20;2749265;-43
2023/12/27 03:21:54;;;;;;;;;3.25;3.25;;;;;6.57;100.00;100017.69;6296209;20;1817503;-44
2023/12/27 03:24:21;;;;;;;;;3.50;3.00;;;;;6.40;100.00;100021.94;6308590;20;2741945;-47
2023/12/27 03:26:49;;;;;;;;;3.00;3.00;;;;;6.58;100.00;100019.44;6311348;20;2739971;-43
2023/12/27 03:29:17;;;;;;;;;7.00;4.00;;;;;6.37;100.00;100023.84;6317868;20;2639900;-45
2023/12/27 03:31:45;;;;;;;;;6.75;3.00;;;;;6.18;100.00;100028.13;6324406;20;1825459;-44
2023/12/27 03:34:13;;;;;;;;;7.00;4.00;;;;;6.36;100.00;100035.41;6312724;20;2756633;-43
2023/12/27 03:36:42;;;;;;;;;2.75;2.75;;;;;6.62;100.00;100038.88;6297779;20;1812866;-42
2023/12/27 03:39:10;;;;;;;;;5.00;3.00;;;;;6.75;100.00;100034.78;6327626;20;1817163;-43
2023/12/27 03:41:39;;;;;;;;;6.00;4.00;;;;;6.61;100.00;100037.13;6329621;20;1825447;-43
2023/12/27 03:44:08;;;;;;;;;4.00;4.00;;;;;6.65;100.00;100041.41;6326598;20;1807614;-43
2023/12/27 03:46:36;;;;;;;;;3.50;3.50;;;;;6.47;100.00;100042.13;6311400;20;2744087;-43
2023/12/27 03:49:04;;;;;;;;;3.25;2.50;;;;;6.50;100.00;100048.22;6328291;20;1799215;-43
2023/12/27 03:51:33;;;;;;;;;2.00;2.00;;;;;6.58;100.00;100053.22;6312298;20;3442958;-43
2023/12/27 03:54:01;;;;;;;;;3.00;3.00;;;;;6.30;100.00;100049.00;6297860;20;1812853;-42
2023/12/27 03:56:30;;;;;;;;;5.75;3.00;;;;;6.32;100.00;100051.59;6330273;20;1815094;-44
2023/12/27 03:58:58;;;;;;;;;6.00;6.00;;;;;6.24;100.00;100054.56;6310762;20;2748209;-43
2023/12/27 04:01:26;;;;;;;;;6.75;4.00;;;;;6.06;100.00;100061.44;6294832;20;1822365;-43
2023/12/27 04:03:55;;;;;;;;;7.50;5.75;;;;;6.21;100.00;100059.97;6326410;20;1818066;-43
2023/12/27 04:06:23;;;;;;;;;9.00;6.00;;;;;6.02;100.00;100048.28;6310275;20;2748211;-45
2023/12/27 04:08:52;;;;;;;;;5.50;5.50;;;;;6.01;100.00;100052.75;6313897;20;2746137;-45
2023/12/27 04:11:20;;;;;;;;;7.00;4.00;;;;;5.96;100.00;100059.19;6297678;20;1818719;-44
2023/12/27 04:13:49;;;;;;;;;6.00;6.00;;;;;5.97;100.00;100056.44;6328953;20;1825376;-44
2023/12/27 04:16:16;;;;;;;;;4.00;4.00;;;;;6.13;100.00;100067.41;6312605;20;2752423;-43
2023/12/27 04:18:44;;;;;;;;;3.00;3.00;;;;;5.89;100.00;100064.69;6294676;20;2733606;-44
2023/12/27 04:21:12;;;;;;;;;2.00;2.00;;;;;6.02;100.00;100061.59;6312197;20;2747209;-43
2023/12/27 04:23:41;;;;;;;;;4.50;2.25;;;;;5.89;100.00;100062.00;6327375;20;1825499;-43
2023/12/27 04:26:09;;;;;;;;;6.25;4.00;;;;;5.85;100.00;100060.41;6325780;20;1818170;-43
2023/12/27 04:28:38;;;;;;;;;3.75;2.00;;;;;5.96;100.00;100059.19;6327066;20;1803448;-45
2023/12/27 04:31:06;;;;;;;;;2.00;2.00;;;;;5.87;100.00;100073.66;6311038;20;2751362;-45
2023/12/27 04:33:34;;;;;;;;;3.00;2.00;;;;;5.97;100.00;100075.09;6299459;20;1816089;-46
2023/12/27 04:36:04;;;;;;;;;3.00;3.00;;;;;6.17;100.00;100084.19;6332733;20;1813891;-45
2023/12/27 04:38:33;;;;;;;;;3.00;3.00;;;;;6.02;100.00;100074.94;6331596;20;1810816;-45
2023/12/27 04:41:08;;;;;;;;;6.00;3.00;;;;;5.99;100.00;100080.38;6332938;20;1820264;-44
2023/12/27 04:43:37;;;;;;;;;3.00;3.00;;;;;6.18;100.00;100081.44;6335477;20;1817083;-43
2023/12/27 04:46:06;;;;;;;;;3.00;2.00;;;;;5.97;100.00;100088.41;6316657;20;2746169;-45
2023/12/27 04:48:35;;;;;;;;;4.00;2.75;;;;;5.90;100.00;100093.09;6304151;20;1810672;-43
2023/12/27 04:51:04;;;;;;;;;4.00;4.00;;;;;5.79;100.00;100100.56;6334062;20;1813916;-43
2023/12/27 04:53:33;;;;;;;;;6.00;6.00;;;;;5.86;100.00;100103.91;6334105;20;1823502;-44
2023/12/27 04:56:02;;;;;;;;;3.25;2.00;;;;;5.89;100.00;100104.66;6333428;20;1813952;-44
2023/12/27 04:58:35;;;;;;;;;5.00;5.00;;;;;5.92;100.00;100106.34;6315328;20;2750296;-45
2023/12/27 05:01:08;;;;;;;;;8.75;6.00;;;;;6.08;100.00;100101.34;6302217;20;1819100;-45
2023/12/27 05:03:38;;;;;;;;;3.00;3.00;;;;;6.20;100.00;100105.38;6335097;20;1807669;-43
2023/12/27 05:06:08;;;;;;;;;7.75;4.25;;;;;5.99;100.00;100110.56;6300594;20;1817510;-44
2023/12/27 05:08:44;;;;;;;;;7.50;6.50;;;;;6.10;100.00;100113.72;6315109;20;2746198;-45
2023/12/27 05:11:18;;;;;;;;;3.50;3.50;;;;;6.14;100.00;100117.16;6333279;20;1814957;-45
2023/12/27 05:13:48;;;;;;;;;2.00;2.00;;;;;6.41;99.41;100119.72;6332614;20;1809671;-43
2023/12/27 05:16:18;;;;;;;;;2.25;2.25;;;;;6.41;99.29;100127.72;6331623;20;1815999;-44
2023/12/27 05:18:46;;;;;;;;;2.00;2.00;;;;;6.44;99.18;100124.94;6331213;20;1822153;-45
2023/12/27 05:21:18;;;;;;;;;4.00;2.00;;;;;6.44;98.53;100130.25;6314161;20;2756942;-43
2023/12/27 05:23:46;;;;;;;;;2.00;2.00;;;;;6.24;99.54;100134.56;6296760;20;1818583;-45
2023/12/27 05:26:15;;;;;;;;;2.00;2.00;;;;;6.36;99.55;100131.41;6333140;20;1822251;-44
2023/12/27 05:28:44;;;;;;;;;2.00;2.00;;;;;6.51;98.05;100134.44;6330023;20;1807574;-43
2023/12/27 05:31:12;;;;;;;;;2.75;2.00;;;;;6.26;99.64;100143.34;6328389;20;1821152;-44
2023/12/27 05:33:40;;;;;;;;;4.00;3.00;;;;;6.26;99.13;100147.81;6313910;20;2756495;-44
2023/12/27 05:36:10;;;;;;;;;3.00;2.00;;;;;6.47;97.76;100152.34;6302150;20;1807609;-43
2023/12/27 05:38:39;;;;;;;;;2.00;2.00;;;;;6.42;98.08;100153.44;6333231;20;1820216;-44
2023/12/27 05:41:08;;;;;;;;;3.00;2.00;;;;;6.34;97.89;100151.94;6331186;20;1809832;-43
2023/12/27 05:43:37;;;;;;;;;3.25;2.00;;;;;6.48;96.99;100161.25;6333664;20;1815445;-44
2023/12/27 05:46:05;;;;;;;;;2.25;2.00;;;;;6.56;96.25;100154.69;6326640;20;1811709;-44
2023/12/27 05:48:34;;;;;;;;;2.75;2.00;;;;;6.53;95.92;100149.47;6331805;20;1813893;-43
2023/12/27 05:51:03;;;;;;;;;6.50;3.25;;;;;6.65;95.38;100156.13;6331133;20;1809769;-44
2023/12/27 05:53:32;;;;;;;;;6.25;3.75;;;;;6.68;95.00;100153.34;6332723;20;1812076;-44
2023/12/27 05:56:01;;;;;;;;;3.25;3.00;;;;;6.72;95.01;100154.13;6330112;20;1811791;-44
2023/12/27 05:58:29;;;;;;;;;5.00;3.00;;;;;6.77;93.89;100158.34;6316458;20;2735730;-43
2023/12/27 06:00:57;;;;;;;;;2.00;2.00;;;;;6.79;94.13;100160.94;6330304;20;1811922;-44
2023/12/27 06:03:26;;;;;;;;;2.50;2.50;;;;;6.83;94.01;100170.56;6328737;20;1820263;-43
2023/12/27 06:05:55;;;;;;;;;7.00;3.00;;;;;6.53;95.74;100177.91;6329367;20;1813906;-44
2023/12/27 06:08:24;;;;;;;;;3.00;2.25;;;;;6.63;95.34;100167.78;6333133;20;1815991;-43
2023/12/27 06:10:52;;;;;;;;;3.50;2.50;;;;;6.69;95.35;100167.53;6331424;20;1812938;-43
2023/12/27 06:13:21;;;;;;;;;3.75;3.75;;;;;6.61;94.92;100175.88;6333367;20;1819214;-43
2023/12/27 06:15:49;;;;;;;;;3.00;3.00;;;;;6.59;95.50;100177.72;6327837;20;1809673;-44
2023/12/27 06:18:18;;;;;;;;;4.75;3.00;;;;;6.49;95.98;100182.50;6332462;20;1820155;-43
2023/12/27 06:20:47;;;;;;;;;0.50;0.00;;;;;6.60;95.34;100195.44;6328500;20;1806022;-44
2023/12/27 06:23:15;;;;;;;;;5.75;3.00;;;;;6.54;95.42;100201.03;6332316;20;1811869;-44
2023/12/27 06:25:44;;;;;;;;;4.00;2.25;;;;;6.63;94.81;100195.34;6329332;20;1812826;-43
2023/12/27 06:28:13;;;;;;;;;5.50;3.75;;;;;6.61;95.04;100210.56;6331741;20;1817584;-45
2023/12/27 06:30:41;;;;;;;;;4.25;3.00;;;;;6.38;95.81;100204.25;6331624;20;1812304;-44
2023/12/27 06:33:10;;;;;;;;;3.25;3.25;;;;;6.37;96.78;100204.28;6329871;20;1805507;-44
2023/12/27 06:35:38;;;;;;;;;4.00;4.00;;;;;6.46;96.23;100211.09;6311105;20;2750343;-43
2023/12/27 06:38:06;;;;;;;;;4.00;4.00;;;;;6.31;96.76;100210.72;6281114;20;2754457;-44
2023/12/27 06:40:34;;;;;;;;;5.00;3.25;;;;;6.51;96.77;100219.81;6301765;20;1811867;-43
2023/12/27 06:43:03;;;;;;;;;6.25;5.75;;;;;6.50;96.24;100213.63;6331771;20;1820259;-44
2023/12/27 06:45:31;;;;;;;;;7.00;6.00;;;;;6.51;96.26;100227.81;6309909;20;2748250;-44
2023/12/27 06:47:58;;;;;;;;;7.00;4.50;;;;;6.44;97.11;100228.97;6282761;20;2745145;-43
2023/12/27 06:50:28;;;;;;;;;5.50;5.50;;;;;6.63;95.47;100231.81;6300683;20;1817044;-44
2023/12/27 06:52:56;;;;;;;;;10.50;9.00;;;;;6.40;96.55;100246.88;6311087;20;2758612;-44
2023/12/27 06:55:25;;;;;;;;;8.00;5.00;;;;;6.60;95.70;100259.47;6296769;20;1803410;-44
2023/12/27 06:57:53;;;;;;;;;12.00;9.00;;;;;6.76;94.88;100271.34;6309446;20;2764852;-43
2023/12/27 07:00:22;;;;;;;;;11.00;5.75;;;;;6.45;96.32;100282.25;6297241;20;1819105;-44
2023/12/27 07:02:50;;;;;;;;;6.00;6.00;;;;;6.43;95.77;100272.56;6315232;20;2748236;-44
2023/12/27 07:05:18;;;;;;;;;7.50;7.50;;;;;6.40;96.16;100277.97;6280203;20;2737830;-44
2023/12/27 07:07:47;;;;;;;;;13.00;9.50;;;;;6.35;96.57;100281.69;6311993;20;2775302;-44
2023/12/27 07:10:14;;;;;;;;;9.00;8.00;;;;;6.31;97.00;100290.72;6285649;20;2746135;-43
2023/12/27 07:12:42;;;;;;;;;12.50;8.50;;;;;6.40;96.36;100293.97;6314774;20;2766967;-43
2023/12/27 07:15:11;;;;;;;;;8.50;8.00;;;;;6.51;95.15;100292.72;6279252;20;2741015;-43
2023/12/27 07:17:41;;;;;;;;;5.50;4.00;;;;;6.47;95.15;100299.06;6327012;20;1806672;-43
2023/12/27 07:20:10;;;;;;;;;8.50;8.50;;;;;6.54;94.69;100299.72;6312664;20;2732610;-44
2023/12/27 07:22:38;;;;;;;;;9.00;8.00;;;;;6.67;94.55;100308.19;6313871;20;2750378;-43
2023/12/27 07:25:10;;;;;;;;;11.40;9.20;;;;;6.56;94.84;100305.88;6317867;20;2496108;-43
2023/12/27 07:27:40;;;;;;;;;15.00;9.40;;;;;6.37;96.25;100314.53;6334717;20;2786737;-42
2023/12/27 07:30:11;;;;;;;;;9.00;7.60;;;;;6.59;94.39;100317.31;6303728;20;2739945;-43
2023/12/27 07:32:39;;;;;;;;;9.00;9.00;;;;;6.82;93.99;100320.97;6310992;20;2748264;-43
2023/12/27 07:35:10;;;;;;;;;10.00;8.33;;;;;6.84;93.39;100336.91;6314621;20;1811761;-44
2023/12/27 07:37:38;;;;;;;;;9.50;9.50;;;;;7.08;92.18;100345.84;6281303;20;2763854;-44
2023/12/27 07:40:10;;;;;;;;;12.29;10.14;;;;;6.87;93.37;100340.34;6321872;20;1804602;-45
2023/12/27 07:42:40;;;;;;;;;10.60;9.40;;;;;6.94;92.59;100338.34;6336393;20;2781583;-43
2023/12/27 07:45:08;;;;;;;;;7.00;7.00;;;;;6.88;93.10;100338.56;6280424;20;2737815;-42
2023/12/27 07:47:36;;;;;;;;;11.00;8.00;;;;;7.11;92.24;100341.28;6280184;20;2769069;-45
2023/12/27 07:50:06;;;;;;;;;11.40;9.20;;;;;7.18;91.21;100340.09;6305512;20;2770073;-43
2023/12/27 07:52:37;;;;;;;;;5.40;4.00;;;;;7.38;89.96;100343.84;6305864;20;2740922;-43
2023/12/27 07:55:06;;;;;;;;;7.00;7.00;;;;;7.31;90.09;100345.00;6311037;20;2739831;-42
2023/12/27 07:57:34;;;;;;;;;11.00;7.00;;;;;7.57;89.87;100349.34;6278561;20;2763845;-43
2023/12/27 08:00:02;;;;;;;;;8.00;5.00;;;;;7.64;88.91;100335.69;6283704;20;2623371;-46
2023/12/27 08:02:30;;;;;;;;;11.00;9.00;;;;;7.54;89.15;100336.97;6309521;20;2767026;-43
2023/12/27 08:04:58;;;;;;;;;7.50;7.00;;;;;7.81;88.92;100339.50;6279207;20;2743046;-42
2023/12/27 08:07:28;;;;;;;;;7.83;7.67;;;;;7.91;88.59;100344.41;6318508;20;1798288;-43
2023/12/27 08:09:56;;;;;;;;;8.00;8.00;;;;;8.17;86.47;100355.00;6283747;20;2748674;-42
2023/12/27 08:12:24;;;;;;;;;8.00;5.00;;;;;8.13;85.87;100370.28;6310681;20;2748261;-44
2023/12/27 08:14:52;;;;;;;;;6.00;6.00;;;;;8.27;84.72;100377.75;6280033;20;2729467;-42
2023/12/27 08:17:19;;;;;;;;;8.00;8.00;;;;;8.46;84.76;100381.44;6312165;20;2734727;-42
2023/12/27 08:19:47;;;;;;;;;10.00;8.00;;;;;8.34;85.54;100373.88;6312544;20;2748226;-42
2023/12/27 08:22:15;;;;;;;;;6.00;6.00;;;;;7.96;86.37;100375.44;6280179;20;2732609;-43
2023/12/27 08:24:43;;;;;;;;;7.00;7.00;;;;;7.97;86.75;100379.84;6313072;20;2731551;-44
2023/12/27 08:27:11;;;;;;;;;8.00;8.00;;;;;7.78;87.31;100385.94;6309465;20;2736749;-43
2023/12/27 08:29:41;;;;;;;;;9.80;9.80;;;;;7.57;88.52;100390.28;6297668;20;2761796;-43
2023/12/27 08:32:09;;;;;;;;;10.00;9.00;;;;;8.00;87.85;100395.78;6279560;20;2755561;-42
2023/12/27 08:34:37;;;;;;;;;5.00;5.00;;;;;7.83;86.48;100404.47;6284794;20;2733615;-43
2023/12/27 08:37:06;;;;;;;;;5.40;5.40;;;;;7.73;88.05;100409.28;6337798;20;2749259;-42
2023/12/27 08:39:34;;;;;;;;;5.00;4.00;;;;;7.80;87.56;100425.97;6314443;20;2756610;-42
2023/12/27 08:42:02;;;;;;;;;6.50;5.00;;;;;7.88;88.28;100418.53;6294315;20;2744074;-43
2023/12/27 08:44:32;;;;;;;;;6.00;5.40;;;;;7.85;86.92;100424.00;6307554;20;2744458;-44
2023/12/27 08:46:59;;;;;;;;;7.50;6.00;;;;;8.08;87.42;100418.63;6313459;20;2746921;-42
2023/12/27 08:49:27;;;;;;;;;8.50;7.00;;;;;7.83;86.94;100426.72;6315413;20;2738842;-44
2023/12/27 08:51:56;;;;;;;;;8.25;7.25;;;;;8.32;84.97;100432.81;6331975;20;1811554;-44
2023/12/27 08:54:25;;;;;;;;;6.00;6.00;;;;;8.38;83.88;100439.72;6315142;20;2736954;-43
2023/12/27 08:56:53;;;;;;;;;6.00;6.00;;;;;8.53;83.63;100446.28;6303038;20;2741953;-43
2023/12/27 08:59:20;;;;;;;;;13.00;7.00;;;;;8.79;81.46;100453.22;6274393;20;2749277;-43
2023/12/27 09:01:48;;;;;;;;;9.00;7.00;;;;;8.95;81.51;100462.38;6278719;20;2749309;-43
2023/12/27 09:04:19;;;;;;;;;5.50;4.25;;;;;9.00;79.75;100471.09;6292948;20;1811261;-43
2023/12/27 09:06:53;;;;;;;;;6.00;6.00;;;;;9.06;80.20;100474.41;6307301;20;2746129;-43
2023/12/27 09:09:22;;;;;;;;;7.00;7.00;;;;;8.99;80.30;100468.47;6294378;20;1810863;-42
2023/12/27 09:11:51;;;;;;;;;8.50;6.00;;;;;9.27;79.83;100473.53;6327122;20;1797722;-43
2023/12/27 09:14:20;;;;;;;;;2.00;1.00;;;;;9.69;78.65;100491.31;6326975;20;1805607;-42
2023/12/27 09:16:47;;;;;;;;;12.00;9.00;;;;;9.52;77.79;100491.19;6309575;20;2775293;-44
2023/12/27 09:19:16;;;;;;;;;6.00;6.00;;;;;9.32;77.99;100492.06;6291009;20;1810926;-43
2023/12/27 09:21:47;;;;;;;;;11.50;8.50;;;;;9.65;78.11;100487.88;6317223;20;2765989;-43
2023/12/27 09:24:16;;;;;;;;;19.00;18.00;;;;;10.06;76.42;100487.81;6279527;20;3560758;-43
2023/12/27 09:26:48;;;;;;;;;19.00;18.50;;;;;9.99;76.33;100482.81;6278777;20;2837794;-43
2023/12/27 09:29:16;;;;;;;;;10.00;9.00;;;;;10.13;75.90;100483.03;6282878;20;2762891;-44
2023/12/27 09:31:45;;;;;;;;;17.50;16.50;;;;;10.04;75.23;100486.16;6280409;20;2839860;-43
2023/12/27 09:34:12;;;;;;;;;6.00;4.00;;;;;9.92;76.32;100482.22;6285295;20;2756603;-44
2023/12/27 09:36:40;;;;;;;;;7.00;7.00;;;;;9.94;76.86;100493.75;6283757;20;2743134;-46
2023/12/27 09:39:11;;;;;;;;;17.00;15.50;;;;;9.88;76.62;100486.00;6281558;20;2821144;-44
2023/12/27 09:41:43;;;;;;;;;18.00;16.50;;;;;9.66;78.29;100476.25;6281347;20;2821186;-52
2023/12/27 09:44:12;;;;;;;;;13.67;13.67;;;;;9.67;78.42;100477.09;6280018;20;3526390;-52
2023/12/27 09:46:40;;;;;;;;;11.00;9.50;;;;;9.83;77.97;100475.47;6307925;20;2776397;-50
2023/12/27 09:49:10;;;;;;;;;11.80;9.60;;;;;10.06;77.98;100468.19;6307232;20;2788889;-50
2023/12/27 09:51:40;;;;;;;;;27.50;23.00;;;;;10.05;77.50;100472.66;6277879;20;2860732;-52
2023/12/27 09:54:09;;;;;;;;;25.00;21.00;;;;;10.04;76.54;100475.41;6276515;20;2831596;-51
2023/12/27 09:56:37;;;;;;;;;4.25;3.00;;;;;9.83;78.80;100483.50;6302771;20;1818720;-50
2023/12/27 09:59:08;;;;;;;;;22.00;21.00;;;;;10.09;79.14;100486.81;6308211;20;2839959;-43
2023/12/27 10:01:40;;;;;;;;;9.00;9.00;;;;;9.89;79.40;100493.09;6282837;20;2744129;-45
2023/12/27 10:04:44;;;;;;;;;14.00;12.00;;;;;10.20;77.29;100489.84;6280158;20;3530545;-48
2023/12/27 10:07:14;;;;;;;;;6.00;5.50;;;;;10.31;77.14;100486.69;6311427;20;2745094;-44
2023/12/27 10:09:42;;;;;;;;;6.00;5.00;;;;;10.25;75.39;100487.81;6283654;20;2750363;-45
2023/12/27 10:12:14;;;;;;;;;23.17;21.67;;;;;10.30;75.72;100484.97;6306444;20;3580494;-43
2023/12/27 10:14:43;;;;;;;;;14.00;11.00;;;;;10.13;76.62;100480.34;6278136;20;2790919;-45
2023/12/27 10:17:13;;;;;;;;;19.33;18.67;;;;;10.02;77.13;100479.97;6275886;20;2834646;-44
2023/12/27 10:19:45;;;;;;;;;30.67;27.67;;;;;10.15;75.07;100474.91;6317051;20;3583641;-42
2023/12/27 10:22:14;;;;;;;;;19.00;15.33;;;;;10.38;75.16;100474.72;6283092;20;3546237;-43
2023/12/27 10:24:42;;;;;;;;;17.50;16.00;;;;;10.38;71.72;100480.09;6284949;20;2640977;-43
2023/12/27 10:27:13;;;;;;;;;13.33;13.33;;;;;10.31;72.90;100479.50;6280513;20;3533650;-43
2023/12/27 10:29:48;;;;;;;;;11.50;9.00;;;;;10.32;72.33;100478.56;6315360;20;2775384;-41
2023/12/27 10:32:17;;;;;;;;;12.40;10.00;;;;;10.42;71.15;100468.25;6306401;20;2781552;-44
2023/12/27 10:34:47;;;;;;;;;6.75;6.25;;;;;10.63;71.12;100463.66;6307755;20;2053556;-43
2023/12/27 10:37:17;;;;;;;;;12.67;12.33;;;;;10.95;68.96;100474.59;6309889;20;3531506;-42
2023/12/27 10:39:47;;;;;;;;;6.00;6.00;;;;;10.96;68.64;100477.22;6286805;20;2740945;-42
2023/12/27 10:42:16;;;;;;;;;18.67;17.00;;;;;10.86;69.81;100470.56;6285457;20;3565887;-54
2023/12/27 10:44:47;;;;;;;;;9.00;9.00;;;;;10.91;67.29;100473.03;6313314;20;2628409;-55
2023/12/27 10:47:20;;;;;;;;;15.00;10.50;;;;;11.04;64.76;100474.16;6272082;20;2788915;-45
2023/12/27 10:49:49;;;;;;;;;18.00;14.00;;;;;10.86;65.35;100475.94;6277510;20;2811766;-44
2023/12/27 10:52:17;;;;;;;;;11.00;11.00;;;;;10.73;64.60;100477.50;6276668;20;2800280;-44
2023/12/27 10:54:51;;;;;;;;;11.67;11.33;;;;;11.04;64.84;100482.22;6271631;20;2786783;-46
2023/12/27 10:57:23;;;;;;;;;21.00;20.00;;;;;11.14;65.84;100475.41;6304514;20;2836883;-45
2023/12/27 10:59:55;;;;;;;;;18.33;16.00;;;;;11.05;64.39;100475.88;6277675;20;2826315;-46
2023/12/27 11:02:29;;;;;;;;;7.57;7.57;;;;;11.19;63.36;100472.50;6358045;20;1793629;-45
2023/12/27 11:04:58;;;;;;;;;15.00;14.67;;;;;11.14;62.00;100486.16;6308055;20;3530458;-47
2023/12/27 11:07:28;;;;;;;;;16.00;13.00;;;;;11.34;61.38;100473.50;6312710;20;2810807;-44
2023/12/27 11:09:59;;;;;;;;;8.50;7.00;;;;;11.25;60.09;100465.94;6283639;20;2735812;-44
2023/12/27 11:12:29;;;;;;;;;6.50;6.50;;;;;11.19;58.63;100461.75;6283383;20;2741945;-46
2023/12/27 11:15:00;;;;;;;;;4.00;4.00;;;;;11.06;58.16;100458.81;6281136;20;2745084;-50
2023/12/27 11:17:31;;;;;;;;;3.00;3.00;;;;;10.95;58.64;100443.25;6283369;20;2727437;-44
2023/12/27 11:19:59;;;;;;;;;5.50;4.00;;;;;11.41;57.24;100448.91;6281438;20;2751436;-45